createdAt,value
2023-02-11T00:02:16.087Z,6.50
2023-02-11T00:04:43.221Z,5.90
2023-02-11T00:07:10.284Z,6.53
2023-02-11T00:09:37.947Z,6.07
2023-02-11T00:12:05.685Z,5.83
2023-02-11T00:14:32.867Z,6.33
2023-02-11T00:17:00.022Z,6.60
2023-02-11T00:19:28.800Z,6.50
2023-02-11T00:21:56.251Z,7.23
2023-02-11T00:24:24.841Z,7.13
2023-02-11T00:26:51.921Z,6.90
2023-02-11T00:29:18.949Z,8.07
2023-02-11T00:31:46.353Z,7.53
2023-02-11T00:34:13.981Z,6.47
2023-02-11T00:36:42.659Z,7.07
2023-02-11T00:39:09.844Z,5.63
2023-02-11T00:41:36.971Z,5.50
2023-02-11T00:44:04.386Z,6.90
2023-02-11T00:46:33.069Z,6.53
2023-02-11T00:49:00.155Z,5.97
2023-02-11T00:51:28.821Z,6.17
2023-02-11T00:53:57.259Z,7.70
2023-02-11T00:56:24.356Z,6.53
2023-02-11T00:58:51.630Z,6.07
2023-02-11T01:01:18.825Z,6.73
2023-02-11T01:03:46.300Z,8.07
2023-02-11T01:06:14.018Z,9.33
2023-02-11T01:08:41.214Z,8.67
2023-02-11T01:11:14.754Z,7.10
2023-02-11T01:13:41.982Z,7.63
2023-02-11T01:16:10.841Z,7.13
2023-02-11T01:18:38.656Z,7.43
2023-02-11T01:21:06.156Z,7.47
2023-02-11T01:23:33.517Z,7.43
2023-02-11T01:26:00.645Z,8.10
2023-02-11T01:28:30.629Z,7.50
2023-02-11T01:30:58.355Z,8.17
2023-02-11T01:33:25.514Z,8.03
2023-02-11T01:35:54.161Z,9.40
2023-02-11T01:38:23.366Z,7.70
2023-02-11T01:40:51.772Z,9.10
2023-02-11T01:43:20.506Z,8.93
2023-02-11T01:46:26.609Z,7.57
2023-02-11T01:48:57.883Z,8.23
2023-02-11T01:51:29.839Z,7.57
2023-02-11T01:54:16.188Z,8.63
2023-02-11T01:57:05.423Z,7.85
2023-02-11T01:59:36.136Z,8.97
2023-02-11T02:02:08.575Z,11.13
2023-02-11T02:04:44.560Z,10.20
2023-02-11T02:07:17.448Z,7.83
2023-02-11T02:09:52.637Z,7.60
2023-02-11T02:12:19.640Z,8.00
2023-02-11T02:14:46.693Z,9.73
2023-02-11T02:17:25.766Z,7.67
2023-02-11T02:20:24.675Z,8.48
2023-02-11T02:23:35.193Z,7.40
2023-02-11T02:26:31.165Z,7.78
2023-02-11T02:29:22.689Z,7.87
2023-02-11T02:32:23.133Z,7.93
2023-02-11T02:34:53.933Z,7.95
2023-02-11T02:37:27.778Z,9.03
2023-02-11T02:39:57.351Z,6.88
2023-02-11T02:42:25.144Z,8.60
2023-02-11T02:44:53.575Z,7.97
2023-02-11T02:47:22.186Z,9.40
2023-02-11T02:49:49.238Z,8.20
2023-02-11T02:52:25.450Z,9.33
2023-02-11T02:55:17.608Z,9.47
2023-02-11T02:58:02.928Z,10.40
2023-02-11T03:00:37.751Z,10.47
2023-02-11T03:03:22.504Z,8.70
2023-02-11T03:05:57.008Z,8.97
2023-02-11T03:08:30.613Z,7.90
2023-02-11T03:11:00.117Z,9.15
2023-02-11T03:13:33.533Z,8.83
2023-02-11T03:16:05.342Z,9.13
2023-02-11T03:18:36.989Z,8.53
2023-02-11T03:21:08.396Z,8.48
2023-02-11T03:23:40.256Z,9.37
2023-02-11T03:26:14.407Z,8.67
2023-02-11T03:28:49.693Z,8.57
2023-02-11T03:31:22.327Z,8.83
2023-02-11T03:33:57.260Z,8.57
2023-02-11T03:36:33.417Z,8.70
2023-02-11T03:39:01.980Z,9.73
2023-02-11T03:41:31.664Z,8.00
2023-02-11T03:43:59.606Z,9.07
2023-02-11T03:46:31.476Z,9.27
2023-02-11T03:49:03.939Z,9.33
2023-02-11T03:51:33.354Z,9.00
2023-02-11T03:54:04.968Z,9.60
2023-02-11T03:56:36.780Z,10.87
2023-02-11T03:59:03.824Z,10.10
2023-02-11T04:01:31.001Z,10.43
2023-02-11T04:03:58.003Z,9.53
2023-02-11T04:06:26.477Z,10.20
2023-02-11T04:08:53.718Z,11.50
2023-02-11T04:11:20.662Z,11.33
2023-02-11T04:13:47.713Z,10.30
2023-02-11T04:16:14.730Z,11.23
2023-02-11T04:18:41.747Z,11.90
2023-02-11T04:21:09.416Z,13.43
2023-02-11T04:23:41.021Z,12.13
2023-02-11T04:26:08.314Z,11.77
2023-02-11T04:28:36.439Z,12.13
2023-02-11T04:31:03.836Z,12.67
2023-02-11T04:33:31.132Z,12.10
2023-02-11T04:35:58.237Z,12.32
2023-02-11T04:38:25.368Z,12.70
2023-02-11T04:40:53.996Z,13.97
2023-02-11T04:43:21.399Z,14.37
2023-02-11T04:45:48.863Z,12.80
2023-02-11T04:48:16.265Z,13.03
2023-02-11T04:50:43.530Z,11.87
2023-02-11T04:53:10.679Z,12.33
2023-02-11T04:55:37.890Z,12.83
2023-02-11T04:58:06.792Z,15.05
2023-02-11T05:00:36.603Z,12.17
2023-02-11T05:03:06.122Z,14.02
2023-02-11T05:05:33.272Z,11.43
2023-02-11T05:08:00.537Z,12.77
2023-02-11T05:10:28.734Z,12.50
2023-02-11T05:12:56.192Z,12.80
2023-02-11T05:15:25.011Z,13.50
2023-02-11T05:17:52.201Z,12.37
2023-02-11T05:20:19.483Z,13.53
2023-02-11T05:22:46.830Z,13.23
2023-02-11T05:25:14.097Z,12.87
2023-02-11T05:27:41.351Z,13.98
2023-02-11T05:30:10.916Z,12.70
2023-02-11T05:32:39.602Z,12.05
2023-02-11T05:35:08.347Z,12.10
2023-02-11T05:37:35.668Z,13.43
2023-02-11T05:40:02.910Z,13.93
2023-02-11T05:42:30.063Z,14.60
2023-02-11T05:44:57.256Z,14.43
2023-02-11T05:47:24.431Z,18.65
2023-02-11T05:49:54.640Z,16.23
2023-02-11T05:52:22.066Z,18.88
2023-02-11T05:54:49.478Z,17.30
2023-02-11T05:57:16.788Z,21.17
2023-02-11T05:59:44.301Z,20.13
2023-02-11T06:02:11.544Z,21.47
2023-02-11T06:04:38.873Z,18.97
2023-02-11T06:07:07.464Z,16.70
2023-02-11T06:09:34.566Z,15.50
2023-02-11T06:12:01.827Z,14.80
2023-02-11T06:14:29.031Z,15.10
2023-02-11T06:16:56.246Z,16.77
2023-02-11T06:19:23.335Z,15.55
2023-02-11T06:21:50.806Z,17.07
2023-02-11T06:24:33.134Z,16.17
2023-02-11T06:27:06.960Z,16.00
2023-02-11T06:29:33.967Z,17.73
2023-02-11T06:32:01.212Z,19.93
2023-02-11T06:34:28.330Z,18.37
2023-02-11T06:36:55.952Z,17.13
2023-02-11T06:39:24.786Z,15.43
2023-02-11T06:41:51.992Z,16.03
2023-02-11T06:44:23.206Z,18.57
2023-02-11T06:46:52.495Z,16.23
2023-02-11T06:54:32.640Z,15.33
2023-02-11T06:56:59.728Z,15.77
2023-02-11T06:59:26.704Z,16.60
2023-02-11T07:01:53.682Z,19.13
2023-02-11T07:04:20.790Z,19.90
2023-02-11T07:06:47.784Z,21.07
2023-02-11T07:09:14.739Z,19.13
2023-02-11T07:11:43.122Z,19.37
2023-02-11T07:14:10.757Z,18.07
2023-02-11T07:16:38.861Z,18.77
2023-02-11T07:19:05.824Z,25.40
2023-02-11T07:21:33.096Z,25.45
2023-02-11T07:24:00.130Z,21.70
2023-02-11T07:26:27.433Z,20.67
2023-02-11T07:28:55.833Z,21.47
2023-02-11T07:31:24.541Z,20.90
2023-02-11T07:33:53.201Z,24.07
2023-02-11T07:36:20.888Z,22.20
2023-02-11T07:38:48.279Z,23.13
2023-02-11T07:41:16.938Z,20.63
2023-02-11T07:43:44.252Z,23.30
2023-02-11T07:46:18.988Z,24.53
2023-02-11T07:48:46.008Z,24.00
2023-02-11T07:51:15.407Z,23.20
2023-02-11T07:53:43.017Z,25.25
2023-02-11T07:56:11.026Z,28.20
2023-02-11T07:58:38.224Z,29.27
2023-02-11T08:01:07.134Z,28.63
2023-02-11T08:03:35.989Z,29.92
2023-02-11T08:06:04.361Z,27.98
2023-02-11T08:08:31.285Z,27.27
2023-02-11T08:10:58.527Z,27.50
2023-02-11T08:13:27.113Z,29.08
2023-02-11T08:15:57.519Z,27.70
2023-02-11T08:18:24.487Z,28.50
2023-02-11T08:20:53.097Z,26.70
2023-02-11T08:23:20.482Z,26.67
2023-02-11T08:25:47.588Z,27.13
2023-02-11T08:28:14.661Z,26.17
2023-02-11T08:30:41.745Z,28.40
2023-02-11T08:33:08.780Z,27.55
2023-02-11T08:35:36.573Z,26.20
2023-02-11T08:38:05.007Z,28.83
2023-02-11T08:40:31.981Z,26.55
2023-02-11T08:42:58.977Z,26.40
2023-02-11T08:45:26.039Z,26.35
2023-02-11T08:47:53.162Z,24.98
2023-02-11T08:50:20.632Z,23.80
2023-02-11T08:52:47.787Z,24.65
2023-02-11T08:55:16.582Z,24.33
2023-02-11T08:57:43.529Z,23.48
2023-02-11T09:00:11.617Z,24.58
2023-02-11T09:02:38.681Z,23.58
2023-02-11T09:05:06.435Z,24.27
2023-02-11T09:07:33.508Z,23.52
2023-02-11T09:10:00.545Z,23.52
2023-02-11T09:12:28.970Z,25.85
2023-02-11T09:14:56.005Z,24.92
2023-02-11T09:17:23.028Z,24.65
2023-02-11T09:19:50.016Z,22.55
2023-02-11T09:22:16.977Z,24.05
2023-02-11T09:24:43.982Z,23.50
2023-02-11T09:27:11.067Z,21.17
2023-02-11T09:29:39.507Z,22.95
2023-02-11T09:32:09.681Z,26.15
2023-02-11T09:34:39.851Z,28.58
2023-02-11T09:37:06.871Z,25.05
2023-02-11T09:39:33.874Z,29.13
2023-02-11T09:42:17.063Z,32.73
2023-02-11T09:44:47.635Z,37.20
2023-02-11T09:47:24.943Z,33.00
2023-02-11T09:49:57.439Z,25.63
2023-02-11T09:52:33.402Z,37.13
2023-02-11T09:55:03.024Z,35.80
2023-02-11T09:57:33.710Z,32.47
2023-02-11T10:00:03.902Z,29.92
2023-02-11T10:02:45.722Z,26.83
2023-02-11T10:05:26.235Z,30.15
2023-02-11T10:08:01.425Z,24.35
2023-02-11T10:10:51.163Z,30.08
2023-02-11T10:13:42.684Z,27.38
2023-02-11T10:16:26.625Z,25.13
2023-02-11T10:19:16.916Z,30.20
2023-02-11T10:21:54.490Z,28.55
2023-02-11T10:24:22.324Z,23.52
2023-02-11T10:26:49.699Z,23.98
2023-02-11T10:29:31.475Z,23.30
2023-02-11T10:32:04.325Z,24.35
2023-02-11T10:34:31.312Z,24.17
2023-02-11T10:36:58.590Z,26.25
2023-02-11T10:39:27.893Z,25.75
2023-02-11T10:41:57.975Z,25.45
2023-02-11T10:44:28.992Z,22.35
2023-02-11T10:46:57.615Z,21.65
2023-02-11T10:49:38.520Z,22.55
2023-02-11T10:52:20.642Z,22.25
2023-02-11T10:54:59.565Z,19.83
2023-02-11T10:57:30.480Z,23.00
2023-02-11T10:59:59.875Z,26.13
2023-02-11T11:02:32.286Z,24.05
2023-02-11T11:05:04.789Z,21.55
2023-02-11T11:07:33.749Z,19.65
2023-02-11T11:10:04.853Z,18.60
2023-02-11T11:12:42.173Z,18.58
2023-02-11T11:15:22.299Z,20.15
2023-02-11T11:17:50.002Z,20.48
2023-02-11T11:20:24.505Z,19.65
2023-02-11T11:22:54.264Z,19.88
2023-02-11T11:25:27.461Z,20.55
2023-02-11T11:27:57.479Z,17.98
2023-02-11T11:30:28.598Z,17.02
2023-02-11T11:32:56.875Z,17.23
2023-02-11T11:35:30.187Z,16.60
2023-02-11T11:38:01.956Z,17.48
2023-02-11T11:40:30.592Z,17.27
2023-02-11T11:43:14.191Z,15.65
2023-02-11T11:45:53.481Z,16.45
2023-02-11T11:48:24.967Z,15.77
2023-02-11T11:50:57.497Z,14.70
2023-02-11T11:53:32.044Z,15.30
2023-02-11T11:56:03.733Z,15.10
2023-02-11T11:58:32.241Z,15.35
2023-02-11T12:01:15.889Z,16.17
2023-02-11T12:04:24.219Z,15.98
2023-02-11T12:07:10.390Z,14.95
2023-02-11T12:09:53.183Z,15.80
2023-02-11T12:12:41.535Z,15.55
2023-02-11T12:15:20.986Z,15.55
2023-02-11T12:18:13.520Z,15.25
2023-02-11T12:21:01.933Z,15.98
2023-02-11T12:23:48.665Z,15.45
2023-02-11T12:26:19.645Z,15.23
2023-02-11T12:29:01.097Z,15.82
2023-02-11T12:31:41.099Z,15.18
2023-02-11T12:34:40.584Z,16.35
2023-02-11T12:37:26.038Z,15.13
2023-02-11T12:40:07.281Z,14.50
2023-02-11T12:43:12.588Z,15.18
2023-02-11T12:45:53.773Z,14.32
2023-02-11T12:48:41.118Z,15.45
2023-02-11T12:51:19.848Z,17.40
2023-02-11T12:54:11.851Z,15.05
2023-02-11T12:56:45.398Z,15.80
2023-02-11T12:59:20.985Z,15.35
2023-02-11T13:01:52.031Z,14.10
2023-02-11T13:04:25.889Z,14.57
2023-02-11T13:09:26.703Z,15.48
2023-02-11T13:11:59.183Z,15.82
2023-02-11T13:14:29.252Z,15.48
2023-02-11T13:16:58.501Z,13.30
2023-02-11T13:19:33.221Z,15.13
2023-02-11T13:22:07.831Z,13.80
2023-02-11T13:24:44.648Z,13.45
2023-02-11T13:27:30.179Z,14.27
2023-02-11T13:30:22.119Z,13.63
2023-02-11T13:33:21.498Z,12.63
2023-02-11T13:36:10.633Z,12.93
2023-02-11T13:38:38.710Z,13.20
2023-02-11T13:41:15.525Z,12.57
2023-02-11T13:43:44.681Z,12.52
2023-02-11T13:46:13.532Z,14.23
2023-02-11T13:48:49.229Z,12.68
2023-02-11T13:51:19.205Z,13.55
2023-02-11T13:53:49.933Z,13.00
2023-02-11T13:56:28.325Z,13.38
2023-02-11T13:59:00.207Z,14.32
2023-02-11T14:02:20.064Z,14.18
2023-02-11T14:05:39.720Z,12.88
2023-02-11T14:08:45.895Z,13.07
2023-02-11T14:11:43.811Z,13.93
2023-02-11T14:14:28.985Z,12.93
2023-02-11T14:17:33.087Z,12.90
2023-02-11T14:20:04.524Z,14.25
2023-02-11T14:22:42.759Z,12.40
2023-02-11T14:25:22.321Z,12.82
2023-02-11T14:27:55.346Z,12.13
2023-02-11T14:30:56.381Z,11.85
2023-02-11T14:33:57.700Z,12.45
2023-02-11T14:36:51.937Z,12.13
2023-02-11T14:39:37.700Z,10.93
2023-02-11T14:42:04.977Z,12.13
2023-02-11T14:44:34.211Z,12.90
2023-02-11T14:47:03.268Z,12.48
2023-02-11T14:49:33.358Z,12.18
2023-02-11T14:52:06.323Z,11.65
2023-02-11T14:54:35.224Z,11.57
2023-02-11T14:57:13.333Z,12.60
2023-02-11T14:59:41.204Z,12.13
2023-02-11T15:02:22.970Z,12.80
2023-02-11T15:04:50.217Z,12.13
2023-02-11T15:07:18.421Z,12.95
2023-02-11T15:09:48.542Z,12.85
2023-02-11T15:12:20.303Z,13.48
2023-02-11T15:14:50.737Z,13.27
2023-02-11T15:17:22.705Z,13.63
2023-02-11T15:19:53.388Z,13.35
2023-02-11T15:22:23.608Z,11.98
2023-02-11T15:24:59.452Z,11.82
2023-02-11T15:27:26.604Z,13.52
2023-02-11T15:29:53.765Z,12.70
2023-02-11T15:32:24.594Z,12.00
2023-02-11T15:34:54.143Z,14.90
2023-02-11T15:37:23.596Z,15.55
2023-02-11T15:39:51.995Z,14.80
2023-02-11T15:42:22.047Z,14.00
2023-02-11T15:44:56.400Z,11.77
2023-02-11T15:47:25.464Z,12.13
2023-02-11T15:49:52.551Z,13.23
2023-02-11T15:52:25.605Z,15.68
2023-02-11T15:54:53.779Z,13.93
2023-02-11T15:57:22.832Z,13.63
2023-02-11T15:59:52.450Z,12.32
2023-02-11T16:02:22.420Z,12.55
2023-02-11T16:04:53.772Z,12.35
2023-02-11T16:07:42.318Z,12.48
2023-02-11T16:10:22.165Z,11.93
2023-02-11T16:13:20.519Z,12.63
2023-02-11T16:15:51.138Z,12.25
2023-02-11T16:18:38.979Z,13.40
2023-02-11T16:21:16.073Z,12.32
2023-02-11T16:23:49.405Z,11.95
2023-02-11T16:26:26.096Z,11.90
2023-02-11T16:28:53.780Z,12.88
2023-02-11T16:31:20.857Z,13.52
2023-02-11T16:33:47.847Z,13.50
2023-02-11T16:36:20.004Z,13.32
2023-02-11T16:38:47.157Z,13.13
2023-02-11T16:41:14.434Z,13.25
2023-02-11T16:43:41.433Z,15.13
2023-02-11T16:46:09.491Z,13.40
2023-02-11T16:48:38.053Z,19.13
2023-02-11T16:51:05.428Z,16.90
2023-02-11T16:53:33.827Z,15.63
2023-02-11T16:56:00.847Z,20.00
2023-02-11T16:58:27.818Z,15.93
2023-02-11T17:00:57.125Z,14.32
2023-02-11T17:03:29.597Z,14.07
2023-02-11T17:05:57.143Z,14.93
2023-02-11T17:08:24.136Z,32.33
2023-02-11T17:10:52.895Z,17.40
2023-02-11T17:13:20.355Z,15.15
2023-02-11T17:15:47.465Z,15.73
2023-02-11T17:18:14.591Z,18.48
2023-02-11T17:20:42.123Z,18.42
2023-02-11T17:23:09.813Z,18.17
2023-02-11T17:25:40.807Z,17.48
2023-02-11T17:28:10.006Z,16.65
2023-02-11T17:30:39.940Z,26.13
2023-02-11T17:33:06.974Z,28.25
2023-02-11T17:35:34.230Z,25.67
2023-02-11T17:38:01.542Z,27.02
2023-02-11T17:40:28.659Z,30.60
2023-02-11T17:42:55.700Z,28.88
2023-02-11T17:45:24.198Z,30.60
2023-02-11T17:47:51.145Z,25.17
2023-02-11T17:50:18.638Z,27.48
2023-02-11T17:52:45.512Z,25.83
2023-02-11T17:55:12.542Z,23.10
2023-02-11T17:57:39.716Z,25.65
2023-02-11T18:00:10.018Z,24.17
2023-02-11T18:02:38.475Z,23.73
2023-02-11T18:05:06.425Z,24.08
2023-02-11T18:07:33.451Z,22.58
2023-02-11T18:10:00.531Z,22.73
2023-02-11T18:12:27.511Z,22.35
2023-02-11T18:14:57.872Z,21.23
2023-02-11T18:17:25.907Z,21.02
2023-02-11T18:19:57.413Z,18.90
2023-02-11T18:22:25.106Z,19.02
2023-02-11T18:24:52.780Z,20.30
2023-02-11T18:27:19.950Z,19.35
2023-02-11T18:29:46.983Z,20.67
2023-02-11T18:32:14.228Z,20.67
2023-02-11T18:34:41.387Z,19.45
2023-02-11T18:37:10.360Z,18.95
2023-02-11T18:39:37.410Z,20.00
2023-02-11T18:42:04.796Z,21.65
2023-02-11T18:44:32.037Z,21.27
2023-02-11T18:46:59.359Z,20.50
2023-02-11T18:49:26.413Z,24.42
2023-02-11T18:51:53.668Z,23.70
2023-02-11T18:54:22.091Z,24.67
2023-02-11T18:56:49.110Z,21.08
2023-02-11T18:59:16.148Z,22.38
2023-02-11T19:01:46.900Z,27.67
2023-02-11T19:04:19.056Z,20.23
2023-02-11T19:06:49.595Z,25.27
2023-02-11T19:09:19.163Z,24.23
2023-02-11T19:11:47.982Z,23.55
2023-02-11T19:14:16.175Z,24.55
2023-02-11T19:16:44.632Z,21.23
2023-02-11T19:19:11.830Z,22.05
2023-02-11T19:21:38.884Z,21.98
2023-02-11T19:24:07.818Z,18.60
2023-02-11T19:26:35.688Z,21.00
2023-02-11T19:29:04.579Z,22.73
2023-02-11T19:31:32.403Z,20.77
2023-02-11T19:33:59.496Z,23.65
2023-02-11T19:36:26.853Z,24.35
2023-02-11T19:38:54.124Z,23.13
2023-02-11T19:41:24.597Z,21.75
2023-02-11T19:43:53.068Z,19.90
2023-02-11T19:46:22.315Z,21.50
2023-02-11T19:48:50.051Z,22.63
2023-02-11T19:51:17.843Z,26.27
2023-02-11T19:53:45.620Z,27.67
2023-02-11T19:56:14.200Z,22.85
2023-02-11T19:58:42.357Z,22.85
2023-02-11T20:01:12.329Z,25.23
2023-02-11T20:03:42.567Z,32.00
2023-02-11T20:06:13.218Z,25.30
2023-02-11T20:08:40.609Z,25.90
2023-02-11T20:11:09.173Z,23.30
2023-02-11T20:13:37.755Z,28.52
2023-02-11T20:16:12.458Z,27.38
2023-02-11T20:18:41.220Z,29.17
2023-02-11T20:21:09.123Z,27.60
2023-02-11T20:23:38.328Z,26.77
2023-02-11T20:26:06.920Z,24.38
2023-02-11T20:28:34.027Z,28.60
2023-02-11T20:31:01.394Z,23.27
2023-02-11T20:33:30.038Z,18.50
2023-02-11T20:36:00.203Z,20.05
2023-02-11T20:38:27.759Z,17.77
2023-02-11T20:40:55.552Z,18.65
2023-02-11T20:43:23.083Z,18.42
2023-02-11T20:45:50.514Z,18.52
2023-02-11T20:48:17.629Z,18.48
2023-02-11T20:50:47.959Z,16.40
2023-02-11T20:53:16.576Z,17.23
2023-02-11T20:55:43.754Z,18.27
2023-02-11T20:58:10.812Z,20.23
2023-02-11T21:00:38.120Z,23.30
2023-02-11T21:03:05.495Z,21.63
2023-02-11T21:05:32.689Z,21.75
2023-02-11T21:07:59.690Z,17.83
2023-02-11T21:10:28.412Z,20.35
2023-02-11T21:12:55.408Z,21.27
2023-02-11T21:15:24.213Z,21.05
2023-02-11T21:17:51.518Z,20.13
2023-02-11T21:20:19.045Z,19.45
2023-02-11T21:22:46.249Z,20.83
2023-02-11T21:25:13.405Z,21.45
2023-02-11T21:27:41.847Z,20.90
2023-02-11T21:30:09.884Z,22.15
2023-02-11T21:32:36.925Z,22.23
2023-02-11T21:35:04.088Z,21.92
2023-02-11T21:37:31.047Z,20.58
2023-02-11T21:39:58.094Z,23.92
2023-02-11T21:42:25.195Z,22.00
2023-02-11T21:44:53.529Z,25.58
2023-02-11T21:47:20.769Z,23.00
2023-02-11T21:49:47.737Z,23.42
2023-02-11T21:52:14.766Z,22.50
2023-02-11T21:54:41.829Z,23.52
2023-02-11T21:57:08.798Z,21.42
2023-02-11T21:59:35.805Z,20.98
2023-02-11T22:02:04.264Z,19.83
2023-02-11T22:04:31.513Z,20.40
2023-02-11T22:06:58.568Z,21.08
2023-02-11T22:09:25.599Z,21.05
2023-02-11T22:11:53.736Z,22.80
2023-02-11T22:14:20.822Z,20.13
2023-02-11T22:16:48.219Z,20.52
2023-02-11T22:19:17.447Z,21.13
2023-02-11T22:21:44.451Z,21.88
2023-02-11T22:24:11.598Z,21.92
2023-02-11T22:26:39.006Z,19.13
2023-02-11T22:29:06.130Z,20.83
2023-02-11T22:31:34.943Z,20.25
2023-02-11T22:34:03.199Z,20.45
2023-02-11T22:36:33.285Z,20.05
2023-02-11T22:39:02.044Z,20.63
2023-02-11T22:41:29.271Z,20.42
2023-02-11T22:43:56.273Z,22.05
2023-02-11T22:46:23.779Z,22.42
2023-02-11T22:48:51.274Z,21.50
2023-02-11T22:51:20.340Z,22.60
2023-02-11T22:53:53.478Z,23.38
2023-02-11T22:56:21.543Z,22.08
2023-02-11T22:58:50.710Z,25.40
2023-02-11T23:01:18.817Z,25.17
2023-02-11T23:03:46.193Z,25.38
2023-02-11T23:06:13.516Z,24.23
2023-02-11T23:08:43.024Z,21.42
2023-02-11T23:11:13.462Z,21.35
2023-02-11T23:13:41.823Z,22.75
2023-02-11T23:16:11.163Z,20.55
2023-02-11T23:18:40.700Z,21.05
2023-02-11T23:21:12.389Z,20.52
2023-02-11T23:23:39.984Z,20.77
2023-02-11T23:26:12.437Z,20.70
2023-02-11T23:28:40.163Z,20.88
2023-02-11T23:31:18.253Z,19.58
2023-02-11T23:33:46.011Z,20.27
2023-02-11T23:36:13.653Z,20.42
2023-02-11T23:38:40.914Z,20.77
2023-02-11T23:41:08.133Z,18.77
2023-02-11T23:43:36.664Z,21.85
2023-02-11T23:46:03.761Z,21.60
2023-02-11T23:48:30.807Z,22.70
2023-02-11T23:50:57.931Z,24.52
2023-02-11T23:53:24.908Z,22.30
2023-02-11T23:55:51.782Z,23.67
2023-02-11T23:58:19.259Z,24.00
